Roan Mountain, Tennessee
Current Conditions -  °F | °C
As of 5:15 PM on Thursday 18 Dec 2014 (Local Time) from K0A9 Reporting Station
Overcast Overcast  
Wind Chill: 35°   Ceiling: 4800
Heat Index: 39°   Visibility: 10mi
Dew Point: 21°   Wind: 6mph
Humidity: 49%   Direction: 230°SW
Pressure: 30.13"   Gusts: NA
Location:  36.2°N, 82.07°W
Report Text: K0A9 182215Z AUTO 23005KT 10SM OVC048 04/M06 A3013 RMK
Loading
Personal Weather Stations






























Interactive Weather Map New forecast layout! Learn more

10-Day Weather Forecast

Advertisements
Track Severe Weather on mobile